Flag for Switzerland

Past Weather in 46°47'56.2"N, 8°12'55.2"E, Switzerland — Yesterday and Last 2 Weeks

Currently: 73 °F. Passing clouds. (Weather station: Alpnachstad, Switzerland). See more current weather

Past Weather in 46°47'56.2"N, 8°12'55.2"E — Graph

°F

46°47'56.2"N, 8°12'55.2"E Temperature Yesterday

Maximum temperature yesterday: 84 °F (at 3:50 pm)
Minimum temperature yesterday: 57 °F (at 5:50 am)
Average temperature yesterday: 71 °F

High & Low Weather Summary for the Past Weeks

 TemperatureHumidityPressure
High88 °F (Jun 18, 3:50 pm)100% (Jun 5, 9:20 pm)30.12 "Hg (Jun 5, 9:20 pm)
Low45 °F (Jun 12, 5:20 am)29% (Jun 18, 3:50 pm)29.71 "Hg (Jun 9, 6:50 pm)
Average63 °F79%29.97 "Hg
* Reported Jun 5 1:20 pm — Jun 20 1:20 pm, 46°47'56.2"N, 8°12'55.2"E. Weather by CustomWeather, © 2024

Note: Actual official high and low records may vary slightly from our data, if they occured in-between our weather recording intervals... More about our weather records

46°47'56.2"N, 8°12'55.2"E Weather History for the Previous 24 Hours

Scroll right to see more
 ConditionsComfort  
Time TempWeatherWind HumidityBarometerVisibility
1:20 pm
Thu, Jun 20
72 °FPassing clouds.8 mph83%30.12 "HgN/A
12:50 pm72 °FPassing clouds.9 mph83%30.12 "HgN/A
12:20 pm70 °FPassing clouds.5 mph83%30.12 "HgN/A
11:50 am70 °FPassing clouds.2 mph83%30.09 "HgN/A
10:50 am70 °FPassing clouds.6 mph88%30.07 "HgN/A
10:20 am70 °FSunny.2 mph83%30.09 "Hg10 mi
9:50 am68 °FPassing clouds.3 mph88%30.09 "HgN/A
9:20 am70 °FPassing clouds.No wind83%30.09 "HgN/A
8:50 am68 °FSunny.1 mph88%30.09 "Hg10 mi
8:20 am68 °FPassing clouds.No wind88%30.09 "HgN/A
7:50 am68 °FSunny.2 mph88%30.09 "Hg10 mi
7:20 am66 °FPassing clouds.1 mph94%30.07 "HgN/A
6:50 am68 °FPassing clouds.3 mph83%30.07 "HgN/A
6:20 am66 °FScattered clouds.1 mph88%30.07 "HgN/A
5:50 am68 °FScattered clouds.5 mph83%30.07 "HgN/A
5:20 am70 °FPartly cloudy.10 mph83%30.04 "HgN/A
4:50 am70 °FSprinkles. Passing clouds.12 mph83%30.04 "HgN/A
4:20 am66 °FPassing clouds.5 mph88%30.09 "HgN/A
3:50 am64 °FPassing clouds.No wind94%30.07 "HgN/A
3:20 am66 °FClear.No wind88%30.04 "HgN/A
2:50 am66 °FClear.3 mph88%30.07 "HgN/A
2:20 am66 °FPassing clouds.6 mph88%30.07 "HgN/A
1:50 am66 °FPassing clouds.3 mph88%30.07 "HgN/A
1:20 am64 °FPassing clouds.3 mph94%30.07 "HgN/A
12:50 am66 °FClear.No wind88%30.07 "HgN/A
12:20 am68 °FClear.3 mph83%30.04 "HgN/A
11:20 pm
Wed, Jun 19
68 °FClear.5 mph88%30.04 "HgN/A
10:50 pm68 °FClear.3 mph88%30.07 "HgN/A
10:20 pm70 °FClear.3 mph83%30.07 "HgN/A
9:50 pm72 °FClear.6 mph78%30.04 "Hg3 mi
9:20 pm73 °FClear.6 mph78%30.04 "HgN/A
8:50 pm75 °FPassing clouds.3 mph74%30.04 "HgN/A
8:20 pm77 °FBroken clouds.10 mph69%30.07 "HgN/A
7:50 pm79 °FLight rain. Broken clouds.7 mph65%30.04 "HgN/A
7:20 pm82 °FPassing clouds.8 mph51%29.98 "HgN/A
6:50 pm84 °FPassing clouds.9 mph48%29.98 "HgN/A
6:20 pm82 °FPassing clouds.8 mph55%29.98 "HgN/A
5:50 pm84 °FClear.10 mph48%29.98 "HgN/A
5:20 pm82 °FClear.10 mph55%29.98 "HgN/A
4:50 pm84 °FClear.13 mph51%29.95 "HgN/A
3:50 pm84 °FClear.12 mph48%29.95 "HgN/A
Weather by CustomWeather, © 2024

See weather overview